sensor_id;sensor_type;location;lat;lon;timestamp;temperature;humidity
25046;DHT22;13044;49.304;12.840;2024-02-14T00:00:38;2.50;99.90
25046;DHT22;13044;49.304;12.840;2024-02-14T00:03:04;2.50;99.90
25046;DHT22;13044;49.304;12.840;2024-02-14T00:05:33;2.50;99.90
25046;DHT22;13044;49.304;12.840;2024-02-14T00:07:59;2.50;99.90
25046;DHT22;13044;49.304;12.840;2024-02-14T00:10:26;2.60;99.90
25046;DHT22;13044;49.304;12.840;2024-02-14T00:12:53;2.60;99.90
25046;DHT22;13044;49.304;12.840;2024-02-14T00:15:20;2.60;99.90
25046;DHT22;13044;49.304;12.840;2024-02-14T00:17:47;2.60;99.90
25046;DHT22;13044;49.304;12.840;2024-02-14T00:20:14;2.60;99.90
25046;DHT22;13044;49.304;12.840;2024-02-14T00:22:41;2.60;99.90
25046;DHT22;13044;49.304;12.840;2024-02-14T00:25:08;2.60;99.90
25046;DHT22;13044;49.304;12.840;2024-02-14T00:27:36;2.60;99.90
25046;DHT22;13044;49.304;12.840;2024-02-14T00:30:03;2.60;99.90
25046;DHT22;13044;49.304;12.840;2024-02-14T00:32:31;2.60;99.90
25046;DHT22;13044;49.304;12.840;2024-02-14T00:34:59;2.60;99.90
25046;DHT22;13044;49.304;12.840;2024-02-14T00:37:26;2.50;99.90
25046;DHT22;13044;49.304;12.840;2024-02-14T00:39:53;2.50;99.90
25046;DHT22;13044;49.304;12.840;2024-02-14T00:42:22;2.50;99.90
25046;DHT22;13044;49.304;12.840;2024-02-14T00:44:49;2.50;99.90
25046;DHT22;13044;49.304;12.840;2024-02-14T00:47:16;2.50;99.90
25046;DHT22;13044;49.304;12.840;2024-02-14T00:49:43;2.50;99.90
25046;DHT22;13044;49.304;12.840;2024-02-14T00:52:10;2.40;99.90
25046;DHT22;13044;49.304;12.840;2024-02-14T00:54:36;2.40;99.90
25046;DHT22;13044;49.304;12.840;2024-02-14T00:57:03;2.40;99.90
25046;DHT22;13044;49.304;12.840;2024-02-14T00:59:30;2.50;99.90
25046;DHT22;13044;49.304;12.840;2024-02-14T01:01:57;2.50;99.90
25046;DHT22;13044;49.304;12.840;2024-02-14T01:04:25;2.50;99.90
25046;DHT22;13044;49.304;12.840;2024-02-14T01:06:51;2.50;99.90
25046;DHT22;13044;49.304;12.840;2024-02-14T01:09:19;2.50;99.90
25046;DHT22;13044;49.304;12.840;2024-02-14T01:11:46;2.50;99.90
25046;DHT22;13044;49.304;12.840;2024-02-14T01:14:15;2.50;99.90
25046;DHT22;13044;49.304;12.840;2024-02-14T01:16:43;2.50;99.90
25046;DHT22;13044;49.304;12.840;2024-02-14T01:19:11;2.50;99.90
25046;DHT22;13044;49.304;12.840;2024-02-14T01:21:38;2.60;99.90
25046;DHT22;13044;49.304;12.840;2024-02-14T01:24:05;2.60;99.90
25046;DHT22;13044;49.304;12.840;2024-02-14T01:26:34;2.60;99.90
25046;DHT22;13044;49.304;12.840;2024-02-14T01:29:01;2.60;99.90
25046;DHT22;13044;49.304;12.840;2024-02-14T01:31:28;2.60;99.90
25046;DHT22;13044;49.304;12.840;2024-02-14T01:33:56;2.60;99.90
25046;DHT22;13044;49.304;12.840;2024-02-14T01:36:24;2.60;99.90
25046;DHT22;13044;49.304;12.840;2024-02-14T01:38:51;2.60;99.90
25046;DHT22;13044;49.304;12.840;2024-02-14T01:41:18;2.60;99.90
25046;DHT22;13044;49.304;12.840;2024-02-14T01:43:45;2.70;99.90
25046;DHT22;13044;49.304;12.840;2024-02-14T01:46:13;2.70;99.90
25046;DHT22;13044;49.304;12.840;2024-02-14T01:48:41;2.70;99.90
25046;DHT22;13044;49.304;12.840;2024-02-14T01:51:12;2.80;99.90
25046;DHT22;13044;49.304;12.840;2024-02-14T01:53:40;2.80;99.90
25046;DHT22;13044;49.304;12.840;2024-02-14T01:56:07;2.80;99.90
25046;DHT22;13044;49.304;12.840;2024-02-14T01:58:34;2.80;99.90
25046;DHT22;13044;49.304;12.840;2024-02-14T02:01:01;2.80;99.90
25046;DHT22;13044;49.304;12.840;2024-02-14T02:03:30;2.90;99.90
25046;DHT22;13044;49.304;12.840;2024-02-14T02:06:05;2.90;99.90
25046;DHT22;13044;49.304;12.840;2024-02-14T02:08:33;2.90;99.90
25046;DHT22;13044;49.304;12.840;2024-02-14T02:11:00;2.90;99.90
25046;DHT22;13044;49.304;12.840;2024-02-14T02:13:26;2.90;99.90
25046;DHT22;13044;49.304;12.840;2024-02-14T02:15:53;2.90;99.90
25046;DHT22;13044;49.304;12.840;2024-02-14T02:18:20;3.00;99.90
25046;DHT22;13044;49.304;12.840;2024-02-14T02:20:48;3.00;99.90
25046;DHT22;13044;49.304;12.840;2024-02-14T02:23:15;3.10;99.90
25046;DHT22;13044;49.304;12.840;2024-02-14T02:25:43;3.10;99.90
25046;DHT22;13044;49.304;12.840;2024-02-14T02:28:10;3.10;99.90
25046;DHT22;13044;49.304;12.840;2024-02-14T02:30:37;3.10;99.90
25046;DHT22;13044;49.304;12.840;2024-02-14T02:33:05;3.20;99.90
25046;DHT22;13044;49.304;12.840;2024-02-14T02:35:33;3.20;99.90
25046;DHT22;13044;49.304;12.840;2024-02-14T02:38:01;3.30;99.90
25046;DHT22;13044;49.304;12.840;2024-02-14T02:40:28;3.30;99.90
25046;DHT22;13044;49.304;12.840;2024-02-14T02:42:54;3.30;99.90
25046;DHT22;13044;49.304;12.840;2024-02-14T02:45:21;3.30;99.90
25046;DHT22;13044;49.304;12.840;2024-02-14T02:47:48;3.40;99.90
25046;DHT22;13044;49.304;12.840;2024-02-14T02:50:18;3.40;99.90
25046;DHT22;13044;49.304;12.840;2024-02-14T02:52:46;3.50;99.90
25046;DHT22;13044;49.304;12.840;2024-02-14T02:55:13;3.50;99.90
25046;DHT22;13044;49.304;12.840;2024-02-14T02:57:41;3.60;99.90
25046;DHT22;13044;49.304;12.840;2024-02-14T03:00:10;3.50;99.90
25046;DHT22;13044;49.304;12.840;2024-02-14T03:02:42;3.60;99.90
25046;DHT22;13044;49.304;12.840;2024-02-14T03:05:12;3.60;99.90
25046;DHT22;13044;49.304;12.840;2024-02-14T03:07:45;3.60;99.90
25046;DHT22;13044;49.304;12.840;2024-02-14T03:10:12;3.60;99.90
25046;DHT22;13044;49.304;12.840;2024-02-14T03:12:40;3.60;99.90
25046;DHT22;13044;49.304;12.840;2024-02-14T03:15:07;3.70;99.90
25046;DHT22;13044;49.304;12.840;2024-02-14T03:17:37;3.70;99.90
25046;DHT22;13044;49.304;12.840;2024-02-14T03:20:05;3.70;99.90
25046;DHT22;13044;49.304;12.840;2024-02-14T03:22:44;3.70;99.90
25046;DHT22;13044;49.304;12.840;2024-02-14T03:25:16;3.70;99.90
25046;DHT22;13044;49.304;12.840;2024-02-14T03:27:44;3.70;99.90
25046;DHT22;13044;49.304;12.840;2024-02-14T03:30:15;3.70;99.90
25046;DHT22;13044;49.304;12.840;2024-02-14T03:32:44;3.80;99.90
25046;DHT22;13044;49.304;12.840;2024-02-14T03:35:12;3.80;99.90
25046;DHT22;13044;49.304;12.840;2024-02-14T03:37:43;3.80;99.90
25046;DHT22;13044;49.304;12.840;2024-02-14T03:40:14;3.80;99.90
25046;DHT22;13044;49.304;12.840;2024-02-14T03:42:41;3.80;99.90
25046;DHT22;13044;49.304;12.840;2024-02-14T03:45:09;3.80;99.90
25046;DHT22;13044;49.304;12.840;2024-02-14T03:47:36;3.80;99.90
25046;DHT22;13044;49.304;12.840;2024-02-14T03:50:09;3.80;99.90
25046;DHT22;13044;49.304;12.840;2024-02-14T03:52:36;3.90;99.90
25046;DHT22;13044;49.304;12.840;2024-02-14T03:55:04;3.90;99.90
25046;DHT22;13044;49.304;12.840;2024-02-14T03:57:32;3.90;99.90
25046;DHT22;13044;49.304;12.840;2024-02-14T04:00:05;3.90;99.90
25046;DHT22;13044;49.304;12.840;2024-02-14T04:02:35;3.90;99.90
25046;DHT22;13044;49.304;12.840;2024-02-14T04:05:06;3.90;99.90
25046;DHT22;13044;49.304;12.840;2024-02-14T04:07:33;3.90;99.90
25046;DHT22;13044;49.304;12.840;2024-02-14T04:10:00;3.90;99.90
25046;DHT22;13044;49.304;12.840;2024-02-14T04:12:27;3.90;99.90
25046;DHT22;13044;49.304;12.840;2024-02-14T04:14:55;3.90;99.90
25046;DHT22;13044;49.304;12.840;2024-02-14T04:17:22;3.90;99.90
25046;DHT22;13044;49.304;12.840;2024-02-14T04:19:50;3.80;99.90
25046;DHT22;13044;49.304;12.840;2024-02-14T04:22:17;3.90;99.90
25046;DHT22;13044;49.304;12.840;2024-02-14T04:24:45;3.80;99.90
25046;DHT22;13044;49.304;12.840;2024-02-14T04:27:12;3.80;99.90
25046;DHT22;13044;49.304;12.840;2024-02-14T04:29:39;3.90;99.90
25046;DHT22;13044;49.304;12.840;2024-02-14T04:32:06;3.90;99.90
25046;DHT22;13044;49.304;12.840;2024-02-14T04:34:33;3.90;99.90
25046;DHT22;13044;49.304;12.840;2024-02-14T04:37:00;3.80;99.90
25046;DHT22;13044;49.304;12.840;2024-02-14T04:39:29;3.90;99.90
25046;DHT22;13044;49.304;12.840;2024-02-14T04:41:56;3.80;99.90
25046;DHT22;13044;49.304;12.840;2024-02-14T04:44:29;3.80;99.90
25046;DHT22;13044;49.304;12.840;2024-02-14T04:46:56;3.90;99.90
25046;DHT22;13044;49.304;12.840;2024-02-14T04:49:25;3.90;99.90
25046;DHT22;13044;49.304;12.840;2024-02-14T04:51:54;3.90;99.90
25046;DHT22;13044;49.304;12.840;2024-02-14T04:54:21;3.90;99.90
25046;DHT22;13044;49.304;12.840;2024-02-14T04:56:48;3.90;99.90
25046;DHT22;13044;49.304;12.840;2024-02-14T04:59:21;3.90;99.90
25046;DHT22;13044;49.304;12.840;2024-02-14T05:01:48;4.00;99.90
25046;DHT22;13044;49.304;12.840;2024-02-14T05:04:16;3.90;99.90
25046;DHT22;13044;49.304;12.840;2024-02-14T05:06:43;4.00;99.90
25046;DHT22;13044;49.304;12.840;2024-02-14T05:09:11;3.90;99.90
25046;DHT22;13044;49.304;12.840;2024-02-14T05:11:38;3.90;99.90
25046;DHT22;13044;49.304;12.840;2024-02-14T05:14:05;3.90;99.90
25046;DHT22;13044;49.304;12.840;2024-02-14T05:16:32;3.90;99.90
25046;DHT22;13044;49.304;12.840;2024-02-14T05:18:59;3.90;99.90
25046;DHT22;13044;49.304;12.840;2024-02-14T05:21:28;3.90;99.90
25046;DHT22;13044;49.304;12.840;2024-02-14T05:23:56;3.80;99.90
25046;DHT22;13044;49.304;12.840;2024-02-14T05:26:23;3.90;99.90
25046;DHT22;13044;49.304;12.840;2024-02-14T05:28:50;3.80;99.90
25046;DHT22;13044;49.304;12.840;2024-02-14T05:31:17;3.80;99.90
25046;DHT22;13044;49.304;12.840;2024-02-14T05:33:44;3.90;99.90
25046;DHT22;13044;49.304;12.840;2024-02-14T05:36:11;3.90;99.90
25046;DHT22;13044;49.304;12.840;2024-02-14T05:38:38;3.90;99.90
25046;DHT22;13044;49.304;12.840;2024-02-14T05:41:05;3.90;99.90
25046;DHT22;13044;49.304;12.840;2024-02-14T05:43:34;3.80;99.90
25046;DHT22;13044;49.304;12.840;2024-02-14T05:46:01;3.80;99.90
25046;DHT22;13044;49.304;12.840;2024-02-14T05:48:28;3.80;99.90
25046;DHT22;13044;49.304;12.840;2024-02-14T05:50:55;3.90;99.90
25046;DHT22;13044;49.304;12.840;2024-02-14T05:53:22;3.80;99.90
25046;DHT22;13044;49.304;12.840;2024-02-14T05:55:49;3.80;99.90
25046;DHT22;13044;49.304;12.840;2024-02-14T05:58:15;3.80;99.90
25046;DHT22;13044;49.304;12.840;2024-02-14T06:00:42;3.80;99.90
25046;DHT22;13044;49.304;12.840;2024-02-14T06:03:09;3.80;99.90
25046;DHT22;13044;49.304;12.840;2024-02-14T06:05:36;3.70;99.90
25046;DHT22;13044;49.304;12.840;2024-02-14T06:08:03;3.70;99.90
25046;DHT22;13044;49.304;12.840;2024-02-14T06:10:30;3.70;99.90
25046;DHT22;13044;49.304;12.840;2024-02-14T06:12:57;3.70;99.90
25046;DHT22;13044;49.304;12.840;2024-02-14T06:15:25;3.60;99.90
25046;DHT22;13044;49.304;12.840;2024-02-14T06:17:52;3.50;99.90
25046;DHT22;13044;49.304;12.840;2024-02-14T06:20:19;3.50;99.90
25046;DHT22;13044;49.304;12.840;2024-02-14T06:22:46;3.60;99.90
25046;DHT22;13044;49.304;12.840;2024-02-14T06:25:27;3.60;99.90
25046;DHT22;13044;49.304;12.840;2024-02-14T06:27:54;3.50;99.90
25046;DHT22;13044;49.304;12.840;2024-02-14T06:30:21;3.50;99.90
25046;DHT22;13044;49.304;12.840;2024-02-14T06:32:48;3.60;99.90
25046;DHT22;13044;49.304;12.840;2024-02-14T06:35:15;3.60;99.90
25046;DHT22;13044;49.304;12.840;2024-02-14T06:37:46;3.60;99.90
25046;DHT22;13044;49.304;12.840;2024-02-14T06:40:25;3.60;99.90
25046;DHT22;13044;49.304;12.840;2024-02-14T06:42:54;3.60;99.90
25046;DHT22;13044;49.304;12.840;2024-02-14T06:45:21;3.60;99.90
25046;DHT22;13044;49.304;12.840;2024-02-14T06:47:48;3.60;99.90
25046;DHT22;13044;49.304;12.840;2024-02-14T06:50:15;3.60;99.90
25046;DHT22;13044;49.304;12.840;2024-02-14T06:52:42;3.60;99.90
25046;DHT22;13044;49.304;12.840;2024-02-14T06:55:09;3.60;99.90
25046;DHT22;13044;49.304;12.840;2024-02-14T06:57:36;3.60;99.90
25046;DHT22;13044;49.304;12.840;2024-02-14T07:00:04;3.60;99.90
25046;DHT22;13044;49.304;12.840;2024-02-14T07:02:33;3.60;99.90
25046;DHT22;13044;49.304;12.840;2024-02-14T07:05:00;3.60;99.90
25046;DHT22;13044;49.304;12.840;2024-02-14T07:07:29;3.60;99.90
25046;DHT22;13044;49.304;12.840;2024-02-14T07:09:55;3.60;99.90
25046;DHT22;13044;49.304;12.840;2024-02-14T07:12:22;3.70;99.90
25046;DHT22;13044;49.304;12.840;2024-02-14T07:14:50;3.70;99.90
25046;DHT22;13044;49.304;12.840;2024-02-14T07:17:17;3.70;99.90
25046;DHT22;13044;49.304;12.840;2024-02-14T07:19:44;3.80;99.90
25046;DHT22;13044;49.304;12.840;2024-02-14T07:22:16;3.80;99.90
25046;DHT22;13044;49.304;12.840;2024-02-14T07:24:46;3.80;99.90
25046;DHT22;13044;49.304;12.840;2024-02-14T07:27:15;3.90;99.90
25046;DHT22;13044;49.304;12.840;2024-02-14T07:29:45;3.90;99.90
25046;DHT22;13044;49.304;12.840;2024-02-14T07:32:12;4.00;99.90
25046;DHT22;13044;49.304;12.840;2024-02-14T07:34:39;4.00;99.90
25046;DHT22;13044;49.304;12.840;2024-02-14T07:37:07;4.10;99.90
25046;DHT22;13044;49.304;12.840;2024-02-14T07:39:34;4.10;99.90
25046;DHT22;13044;49.304;12.840;2024-02-14T07:42:03;4.20;99.90
25046;DHT22;13044;49.304;12.840;2024-02-14T07:44:31;4.20;99.90
25046;DHT22;13044;49.304;12.840;2024-02-14T07:46:58;4.30;99.90
25046;DHT22;13044;49.304;12.840;2024-02-14T07:49:30;4.30;99.90
25046;DHT22;13044;49.304;12.840;2024-02-14T07:51:57;4.40;99.90
25046;DHT22;13044;49.304;12.840;2024-02-14T07:54:24;4.50;99.90
25046;DHT22;13044;49.304;12.840;2024-02-14T07:56:51;4.50;99.90
25046;DHT22;13044;49.304;12.840;2024-02-14T07:59:18;4.60;99.90
25046;DHT22;13044;49.304;12.840;2024-02-14T08:01:45;4.60;99.90
25046;DHT22;13044;49.304;12.840;2024-02-14T08:04:12;4.70;99.90
25046;DHT22;13044;49.304;12.840;2024-02-14T08:06:39;4.70;99.90
25046;DHT22;13044;49.304;12.840;2024-02-14T08:09:06;4.70;99.90
25046;DHT22;13044;49.304;12.840;2024-02-14T08:11:36;4.70;99.90
25046;DHT22;13044;49.304;12.840;2024-02-14T08:14:03;4.80;99.90
25046;DHT22;13044;49.304;12.840;2024-02-14T08:16:32;4.80;99.90
25046;DHT22;13044;49.304;12.840;2024-02-14T08:18:59;4.90;99.90
25046;DHT22;13044;49.304;12.840;2024-02-14T08:21:27;4.90;99.90
25046;DHT22;13044;49.304;12.840;2024-02-14T08:23:58;5.00;99.90
25046;DHT22;13044;49.304;12.840;2024-02-14T08:26:29;5.10;99.90
25046;DHT22;13044;49.304;12.840;2024-02-14T08:28:56;5.10;99.90
25046;DHT22;13044;49.304;12.840;2024-02-14T08:31:24;5.20;99.90
25046;DHT22;13044;49.304;12.840;2024-02-14T08:33:51;5.20;99.90
25046;DHT22;13044;49.304;12.840;2024-02-14T08:36:20;5.20;99.90
25046;DHT22;13044;49.304;12.840;2024-02-14T08:38:48;5.10;99.90
25046;DHT22;13044;49.304;12.840;2024-02-14T08:41:15;5.10;99.90
25046;DHT22;13044;49.304;12.840;2024-02-14T08:43:42;5.10;99.90
25046;DHT22;13044;49.304;12.840;2024-02-14T08:46:14;5.10;99.90
25046;DHT22;13044;49.304;12.840;2024-02-14T08:48:42;5.10;99.90
25046;DHT22;13044;49.304;12.840;2024-02-14T08:51:13;5.20;99.90
25046;DHT22;13044;49.304;12.840;2024-02-14T08:53:40;5.40;99.90
25046;DHT22;13044;49.304;12.840;2024-02-14T08:56:09;5.60;99.90
25046;DHT22;13044;49.304;12.840;2024-02-14T08:58:36;5.80;99.90
25046;DHT22;13044;49.304;12.840;2024-02-14T09:01:03;5.90;99.90
25046;DHT22;13044;49.304;12.840;2024-02-14T09:03:41;6.00;99.90
25046;DHT22;13044;49.304;12.840;2024-02-14T09:06:16;6.10;99.90
25046;DHT22;13044;49.304;12.840;2024-02-14T09:08:48;6.10;99.90
25046;DHT22;13044;49.304;12.840;2024-02-14T09:11:17;6.00;99.90
25046;DHT22;13044;49.304;12.840;2024-02-14T09:13:44;6.10;99.90
25046;DHT22;13044;49.304;12.840;2024-02-14T09:16:14;6.20;99.90
25046;DHT22;13044;49.304;12.840;2024-02-14T09:18:42;6.30;99.90
25046;DHT22;13044;49.304;12.840;2024-02-14T09:21:09;6.40;99.90
25046;DHT22;13044;49.304;12.840;2024-02-14T09:23:36;6.60;99.90
25046;DHT22;13044;49.304;12.840;2024-02-14T09:26:07;6.80;99.90
25046;DHT22;13044;49.304;12.840;2024-02-14T09:28:34;6.90;99.90
25046;DHT22;13044;49.304;12.840;2024-02-14T09:31:01;7.20;99.90
25046;DHT22;13044;49.304;12.840;2024-02-14T09:33:30;7.40;99.90
25046;DHT22;13044;49.304;12.840;2024-02-14T09:35:58;7.60;99.90
25046;DHT22;13044;49.304;12.840;2024-02-14T09:38:25;7.60;99.90
25046;DHT22;13044;49.304;12.840;2024-02-14T09:40:53;7.70;99.90
25046;DHT22;13044;49.304;12.840;2024-02-14T09:43:38;7.70;99.90
25046;DHT22;13044;49.304;12.840;2024-02-14T09:46:08;7.80;99.90
25046;DHT22;13044;49.304;12.840;2024-02-14T09:48:37;8.00;99.90
25046;DHT22;13044;49.304;12.840;2024-02-14T09:51:07;8.10;99.90
25046;DHT22;13044;49.304;12.840;2024-02-14T09:53:34;8.20;99.90
25046;DHT22;13044;49.304;12.840;2024-02-14T09:56:02;8.40;99.90
25046;DHT22;13044;49.304;12.840;2024-02-14T09:58:31;8.50;99.90
25046;DHT22;13044;49.304;12.840;2024-02-14T10:00:58;8.50;99.90
25046;DHT22;13044;49.304;12.840;2024-02-14T10:03:25;8.50;99.90
25046;DHT22;13044;49.304;12.840;2024-02-14T10:05:53;8.40;99.90
25046;DHT22;13044;49.304;12.840;2024-02-14T10:08:20;8.40;99.90
25046;DHT22;13044;49.304;12.840;2024-02-14T10:10:47;8.40;99.90
25046;DHT22;13044;49.304;12.840;2024-02-14T10:13:17;8.30;99.90
25046;DHT22;13044;49.304;12.840;2024-02-14T10:15:45;8.30;99.90
25046;DHT22;13044;49.304;12.840;2024-02-14T10:18:12;8.30;99.90
25046;DHT22;13044;49.304;12.840;2024-02-14T10:20:41;8.40;99.90
25046;DHT22;13044;49.304;12.840;2024-02-14T10:23:11;8.40;99.90
25046;DHT22;13044;49.304;12.840;2024-02-14T10:25:38;8.50;99.90
25046;DHT22;13044;49.304;12.840;2024-02-14T10:28:06;8.50;99.90
25046;DHT22;13044;49.304;12.840;2024-02-14T10:30:38;8.50;99.90
25046;DHT22;13044;49.304;12.840;2024-02-14T10:33:07;8.40;99.90
25046;DHT22;13044;49.304;12.840;2024-02-14T10:35:50;8.30;99.90
25046;DHT22;13044;49.304;12.840;2024-02-14T10:38:22;8.30;99.90
25046;DHT22;13044;49.304;12.840;2024-02-14T10:40:49;8.10;99.90
25046;DHT22;13044;49.304;12.840;2024-02-14T10:43:17;8.20;99.90
25046;DHT22;13044;49.304;12.840;2024-02-14T10:45:45;8.10;99.90
25046;DHT22;13044;49.304;12.840;2024-02-14T10:48:12;8.20;99.90
25046;DHT22;13044;49.304;12.840;2024-02-14T10:50:43;8.20;99.90
25046;DHT22;13044;49.304;12.840;2024-02-14T10:53:13;8.20;99.90
25046;DHT22;13044;49.304;12.840;2024-02-14T10:55:49;8.20;99.90
25046;DHT22;13044;49.304;12.840;2024-02-14T10:58:16;8.10;99.90
25046;DHT22;13044;49.304;12.840;2024-02-14T11:00:44;8.00;99.90
25046;DHT22;13044;49.304;12.840;2024-02-14T11:03:13;8.00;99.90
25046;DHT22;13044;49.304;12.840;2024-02-14T11:05:46;8.00;99.90
25046;DHT22;13044;49.304;12.840;2024-02-14T11:08:14;8.10;99.90
25046;DHT22;13044;49.304;12.840;2024-02-14T11:10:55;8.00;99.90
25046;DHT22;13044;49.304;12.840;2024-02-14T11:13:29;8.10;99.90
25046;DHT22;13044;49.304;12.840;2024-02-14T11:16:03;8.20;99.90
25046;DHT22;13044;49.304;12.840;2024-02-14T11:18:34;8.20;99.90
25046;DHT22;13044;49.304;12.840;2024-02-14T11:21:16;8.30;99.90
25046;DHT22;13044;49.304;12.840;2024-02-14T11:23:53;8.30;99.90
25046;DHT22;13044;49.304;12.840;2024-02-14T11:26:21;8.30;99.90
25046;DHT22;13044;49.304;12.840;2024-02-14T11:28:59;8.40;99.90
25046;DHT22;13044;49.304;12.840;2024-02-14T11:31:33;8.30;99.90
25046;DHT22;13044;49.304;12.840;2024-02-14T11:34:05;8.40;99.90
25046;DHT22;13044;49.304;12.840;2024-02-14T11:36:33;8.40;99.90
25046;DHT22;13044;49.304;12.840;2024-02-14T11:39:05;8.30;99.90
25046;DHT22;13044;49.304;12.840;2024-02-14T11:41:33;8.30;99.90
25046;DHT22;13044;49.304;12.840;2024-02-14T11:44:04;8.30;99.90
25046;DHT22;13044;49.304;12.840;2024-02-14T11:46:35;8.20;99.90
25046;DHT22;13044;49.304;12.840;2024-02-14T11:49:04;8.20;99.90
25046;DHT22;13044;49.304;12.840;2024-02-14T11:51:33;8.20;99.90
25046;DHT22;13044;49.304;12.840;2024-02-14T11:54:03;8.10;99.90
25046;DHT22;13044;49.304;12.840;2024-02-14T11:56:35;8.20;99.90
25046;DHT22;13044;49.304;12.840;2024-02-14T11:59:07;8.20;99.90
25046;DHT22;13044;49.304;12.840;2024-02-14T12:01:37;8.10;99.90
25046;DHT22;13044;49.304;12.840;2024-02-14T12:04:05;8.20;99.90
25046;DHT22;13044;49.304;12.840;2024-02-14T12:06:36;8.20;99.90
25046;DHT22;13044;49.304;12.840;2024-02-14T12:09:08;8.20;99.90
25046;DHT22;13044;49.304;12.840;2024-02-14T12:11:38;8.30;99.90
25046;DHT22;13044;49.304;12.840;2024-02-14T12:14:06;8.20;99.90
25046;DHT22;13044;49.304;12.840;2024-02-14T12:16:35;8.30;99.90
25046;DHT22;13044;49.304;12.840;2024-02-14T12:19:08;8.30;99.90
25046;DHT22;13044;49.304;12.840;2024-02-14T12:21:42;8.30;99.90
25046;DHT22;13044;49.304;12.840;2024-02-14T12:24:14;8.30;99.90
25046;DHT22;13044;49.304;12.840;2024-02-14T12:26:42;8.30;99.90
25046;DHT22;13044;49.304;12.840;2024-02-14T12:29:13;8.30;99.90
25046;DHT22;13044;49.304;12.840;2024-02-14T12:31:40;8.30;99.90
25046;DHT22;13044;49.304;12.840;2024-02-14T12:34:11;8.20;99.90
25046;DHT22;13044;49.304;12.840;2024-02-14T12:36:39;8.20;99.90
25046;DHT22;13044;49.304;12.840;2024-02-14T12:39:06;8.20;99.90
25046;DHT22;13044;49.304;12.840;2024-02-14T12:41:33;8.20;99.90
25046;DHT22;13044;49.304;12.840;2024-02-14T12:44:02;8.20;99.90
25046;DHT22;13044;49.304;12.840;2024-02-14T12:46:29;8.20;99.90
25046;DHT22;13044;49.304;12.840;2024-02-14T12:48:56;8.30;99.90
25046;DHT22;13044;49.304;12.840;2024-02-14T12:51:23;8.30;99.90
25046;DHT22;13044;49.304;12.840;2024-02-14T12:53:55;8.30;99.90
25046;DHT22;13044;49.304;12.840;2024-02-14T12:56:22;8.40;99.90
25046;DHT22;13044;49.304;12.840;2024-02-14T12:58:51;8.40;99.90
25046;DHT22;13044;49.304;12.840;2024-02-14T13:01:18;8.40;99.90
25046;DHT22;13044;49.304;12.840;2024-02-14T13:03:45;8.30;99.90
25046;DHT22;13044;49.304;12.840;2024-02-14T13:06:13;8.30;99.90
25046;DHT22;13044;49.304;12.840;2024-02-14T13:08:43;8.20;99.90
25046;DHT22;13044;49.304;12.840;2024-02-14T13:11:10;8.20;99.90
25046;DHT22;13044;49.304;12.840;2024-02-14T13:13:37;8.20;99.90
25046;DHT22;13044;49.304;12.840;2024-02-14T13:16:04;8.20;99.90
25046;DHT22;13044;49.304;12.840;2024-02-14T13:18:33;8.20;99.90
25046;DHT22;13044;49.304;12.840;2024-02-14T13:21:01;8.20;99.90
25046;DHT22;13044;49.304;12.840;2024-02-14T13:23:28;8.10;99.90
25046;DHT22;13044;49.304;12.840;2024-02-14T13:25:55;8.20;99.90
25046;DHT22;13044;49.304;12.840;2024-02-14T13:28:23;8.20;99.90
25046;DHT22;13044;49.304;12.840;2024-02-14T13:30:49;8.30;99.90
25046;DHT22;13044;49.304;12.840;2024-02-14T13:33:18;8.30;99.90
25046;DHT22;13044;49.304;12.840;2024-02-14T13:35:45;8.30;99.90
25046;DHT22;13044;49.304;12.840;2024-02-14T13:38:12;8.30;99.90
25046;DHT22;13044;49.304;12.840;2024-02-14T13:40:39;8.30;99.90
25046;DHT22;13044;49.304;12.840;2024-02-14T13:43:06;8.30;99.90
25046;DHT22;13044;49.304;12.840;2024-02-14T13:45:46;8.40;99.90
25046;DHT22;13044;49.304;12.840;2024-02-14T13:48:14;8.40;99.90
25046;DHT22;13044;49.304;12.840;2024-02-14T13:50:41;8.50;99.90
25046;DHT22;13044;49.304;12.840;2024-02-14T13:53:10;8.50;99.90
25046;DHT22;13044;49.304;12.840;2024-02-14T13:55:37;8.60;99.90
25046;DHT22;13044;49.304;12.840;2024-02-14T13:58:06;8.60;99.90
25046;DHT22;13044;49.304;12.840;2024-02-14T14:00:35;8.70;99.90
25046;DHT22;13044;49.304;12.840;2024-02-14T14:03:03;8.60;99.90
25046;DHT22;13044;49.304;12.840;2024-02-14T14:05:30;8.70;99.90
25046;DHT22;13044;49.304;12.840;2024-02-14T14:07:57;8.70;99.90
25046;DHT22;13044;49.304;12.840;2024-02-14T14:10:26;8.70;99.90
25046;DHT22;13044;49.304;12.840;2024-02-14T14:12:55;8.70;99.90
25046;DHT22;13044;49.304;12.840;2024-02-14T14:15:22;8.70;99.90
25046;DHT22;13044;49.304;12.840;2024-02-14T14:17:50;8.70;99.90
25046;DHT22;13044;49.304;12.840;2024-02-14T14:20:18;8.70;99.90
25046;DHT22;13044;49.304;12.840;2024-02-14T14:22:46;8.80;99.90
25046;DHT22;13044;49.304;12.840;2024-02-14T14:25:13;8.80;99.90
25046;DHT22;13044;49.304;12.840;2024-02-14T14:27:40;8.90;99.90
25046;DHT22;13044;49.304;12.840;2024-02-14T14:30:10;8.90;99.90
25046;DHT22;13044;49.304;12.840;2024-02-14T14:32:38;9.00;99.90
25046;DHT22;13044;49.304;12.840;2024-02-14T14:35:07;9.00;99.90
25046;DHT22;13044;49.304;12.840;2024-02-14T14:37:37;9.10;99.90
25046;DHT22;13044;49.304;12.840;2024-02-14T14:40:04;9.10;99.90
25046;DHT22;13044;49.304;12.840;2024-02-14T14:42:32;9.10;99.90
25046;DHT22;13044;49.304;12.840;2024-02-14T14:44:59;9.20;99.90
25046;DHT22;13044;49.304;12.840;2024-02-14T14:47:26;9.20;99.90
25046;DHT22;13044;49.304;12.840;2024-02-14T14:49:53;9.20;99.90
25046;DHT22;13044;49.304;12.840;2024-02-14T14:52:20;9.20;99.90
25046;DHT22;13044;49.304;12.840;2024-02-14T14:54:47;9.20;99.90
25046;DHT22;13044;49.304;12.840;2024-02-14T14:57:14;9.20;99.90
25046;DHT22;13044;49.304;12.840;2024-02-14T14:59:42;9.30;99.90
25046;DHT22;13044;49.304;12.840;2024-02-14T15:02:10;9.30;99.90
25046;DHT22;13044;49.304;12.840;2024-02-14T15:04:37;9.30;99.90
25046;DHT22;13044;49.304;12.840;2024-02-14T15:07:06;9.30;99.90
25046;DHT22;13044;49.304;12.840;2024-02-14T15:09:33;9.30;99.90
25046;DHT22;13044;49.304;12.840;2024-02-14T15:12:04;9.30;99.90
25046;DHT22;13044;49.304;12.840;2024-02-14T15:14:31;9.30;99.90
25046;DHT22;13044;49.304;12.840;2024-02-14T15:16:58;9.30;99.90
25046;DHT22;13044;49.304;12.840;2024-02-14T15:19:26;9.30;99.90
25046;DHT22;13044;49.304;12.840;2024-02-14T15:21:53;9.30;99.90
25046;DHT22;13044;49.304;12.840;2024-02-14T15:24:20;9.20;99.90
25046;DHT22;13044;49.304;12.840;2024-02-14T15:26:47;9.20;99.90
25046;DHT22;13044;49.304;12.840;2024-02-14T15:29:20;9.20;99.90
25046;DHT22;13044;49.304;12.840;2024-02-14T15:32:06;9.20;99.90
25046;DHT22;13044;49.304;12.840;2024-02-14T15:34:51;9.20;99.90
25046;DHT22;13044;49.304;12.840;2024-02-14T15:37:19;9.20;99.90